sensor_id;sensor_type;location;lat;lon;timestamp;pressure;altitude;pressure_sealevel;temperature;humidity
32456;BME280;18912;43.270;27.942;2023-08-06T00:00:21;97043.03;;;28.97;79.07
32456;BME280;18912;43.270;27.942;2023-08-06T00:02:48;97039.25;;;29.29;77.51
32456;BME280;18912;43.270;27.942;2023-08-06T00:05:13;97042.56;;;29.19;77.65
32456;BME280;18912;43.270;27.942;2023-08-06T00:07:38;97036.94;;;29.31;77.16
32456;BME280;18912;43.270;27.942;2023-08-06T00:10:04;97022.88;;;29.40;76.15
32456;BME280;18912;43.270;27.942;2023-08-06T00:12:30;97020.19;;;29.43;76.07
32456;BME280;18912;43.270;27.942;2023-08-06T00:14:55;97002.28;;;29.29;76.65
32456;BME280;18912;43.270;27.942;2023-08-06T00:17:21;97004.78;;;29.62;75.01
32456;BME280;18912;43.270;27.942;2023-08-06T00:19:46;97015.66;;;29.23;76.59
32456;BME280;18912;43.270;27.942;2023-08-06T00:22:12;97007.66;;;29.10;78.21
32456;BME280;18912;43.270;27.942;2023-08-06T00:24:37;97002.78;;;29.07;78.22
32456;BME280;18912;43.270;27.942;2023-08-06T00:27:03;97008.22;;;29.43;77.08
32456;BME280;18912;43.270;27.942;2023-08-06T00:29:29;96999.81;;;29.00;78.33
32456;BME280;18912;43.270;27.942;2023-08-06T00:31:54;97006.94;;;28.73;80.16
32456;BME280;18912;43.270;27.942;2023-08-06T00:34:20;96982.13;;;28.80;78.21
32456;BME280;18912;43.270;27.942;2023-08-06T00:36:45;96990.19;;;28.97;76.71
32456;BME280;18912;43.270;27.942;2023-08-06T00:39:11;96981.44;;;28.83;76.81
32456;BME280;18912;43.270;27.942;2023-08-06T00:41:36;96975.78;;;29.07;75.76
32456;BME280;18912;43.270;27.942;2023-08-06T00:44:02;96968.72;;;29.37;73.57
32456;BME280;18912;43.270;27.942;2023-08-06T00:46:28;96968.56;;;29.18;74.05
32456;BME280;18912;43.270;27.942;2023-08-06T00:48:53;96971.13;;;29.11;73.89
32456;BME280;18912;43.270;27.942;2023-08-06T00:51:20;96921.47;;;28.70;74.22
32456;BME280;18912;43.270;27.942;2023-08-06T00:53:47;96983.22;;;29.15;74.63
32456;BME280;18912;43.270;27.942;2023-08-06T00:56:13;96985.41;;;29.37;73.78
32456;BME280;18912;43.270;27.942;2023-08-06T00:58:39;96990.59;;;29.23;74.28
32456;BME280;18912;43.270;27.942;2023-08-06T01:01:05;96985.91;;;29.55;72.70
32456;BME280;18912;43.270;27.942;2023-08-06T01:03:31;96990.84;;;29.62;71.74
32456;BME280;18912;43.270;27.942;2023-08-06T01:05:56;96973.03;;;29.50;71.52
32456;BME280;18912;43.270;27.942;2023-08-06T01:08:44;96981.25;;;29.59;71.64
32456;BME280;18912;43.270;27.942;2023-08-06T01:13:46;96983.09;;;29.39;72.84
32456;BME280;18912;43.270;27.942;2023-08-06T01:16:18;96989.25;;;29.61;71.80
32456;BME280;18912;43.270;27.942;2023-08-06T01:18:44;96977.38;;;29.64;72.16
32456;BME280;18912;43.270;27.942;2023-08-06T01:21:17;96973.44;;;29.65;72.36
32456;BME280;18912;43.270;27.942;2023-08-06T01:23:43;96959.78;;;29.60;72.65
32456;BME280;18912;43.270;27.942;2023-08-06T01:26:33;96939.25;;;29.09;75.51
32456;BME280;18912;43.270;27.942;2023-08-06T01:29:19;96944.47;;;29.10;76.23
32456;BME280;18912;43.270;27.942;2023-08-06T01:31:48;96945.50;;;29.18;75.55
32456;BME280;18912;43.270;27.942;2023-08-06T01:34:23;96927.75;;;29.22;74.50
32456;BME280;18912;43.270;27.942;2023-08-06T01:36:50;96912.19;;;28.94;75.21
32456;BME280;18912;43.270;27.942;2023-08-06T01:39:15;96926.16;;;29.09;74.59
32456;BME280;18912;43.270;27.942;2023-08-06T01:41:41;96936.31;;;28.62;76.85
32456;BME280;18912;43.270;27.942;2023-08-06T01:44:07;96927.94;;;28.74;75.87
32456;BME280;18912;43.270;27.942;2023-08-06T01:46:32;96931.19;;;28.64;75.89
32456;BME280;18912;43.270;27.942;2023-08-06T01:48:58;96912.38;;;28.21;78.22
32456;BME280;18912;43.270;27.942;2023-08-06T01:51:23;96911.34;;;28.26;79.09
32456;BME280;18912;43.270;27.942;2023-08-06T01:53:49;96902.53;;;28.24;79.62
32456;BME280;18912;43.270;27.942;2023-08-06T01:56:14;96899.31;;;28.22;79.68
32456;BME280;18912;43.270;27.942;2023-08-06T01:58:40;96895.72;;;28.73;77.41
32456;BME280;18912;43.270;27.942;2023-08-06T02:01:05;96899.13;;;28.42;78.60
32456;BME280;18912;43.270;27.942;2023-08-06T02:03:31;96890.41;;;28.68;76.94
32456;BME280;18912;43.270;27.942;2023-08-06T02:05:57;96908.75;;;28.45;79.39
32456;BME280;18912;43.270;27.942;2023-08-06T02:08:22;96895.66;;;28.45;78.73
32456;BME280;18912;43.270;27.942;2023-08-06T02:10:48;96895.47;;;28.78;77.26
32456;BME280;18912;43.270;27.942;2023-08-06T02:13:13;96893.53;;;28.94;76.76
32456;BME280;18912;43.270;27.942;2023-08-06T02:15:43;96886.72;;;28.52;78.40
32456;BME280;18912;43.270;27.942;2023-08-06T02:18:09;96881.50;;;28.90;76.22
32456;BME280;18912;43.270;27.942;2023-08-06T02:20:34;96886.88;;;28.83;76.50
32456;BME280;18912;43.270;27.942;2023-08-06T02:23:00;96892.53;;;28.87;75.44
32456;BME280;18912;43.270;27.942;2023-08-06T02:25:25;96890.00;;;29.09;74.99
32456;BME280;18912;43.270;27.942;2023-08-06T02:27:51;96891.03;;;29.17;74.17
32456;BME280;18912;43.270;27.942;2023-08-06T02:30:16;96878.22;;;29.43;72.96
32456;BME280;18912;43.270;27.942;2023-08-06T02:32:42;96870.13;;;29.23;74.02
32456;BME280;18912;43.270;27.942;2023-08-06T02:35:07;96876.53;;;29.11;75.56
32456;BME280;18912;43.270;27.942;2023-08-06T02:37:34;96870.66;;;29.01;76.10
32456;BME280;18912;43.270;27.942;2023-08-06T02:39:59;96864.81;;;28.90;76.78
32456;BME280;18912;43.270;27.942;2023-08-06T02:42:25;96856.66;;;28.97;76.75
32456;BME280;18912;43.270;27.942;2023-08-06T02:44:52;96864.19;;;28.41;79.89
32456;BME280;18912;43.270;27.942;2023-08-06T02:47:17;96855.06;;;28.29;79.54
32456;BME280;18912;43.270;27.942;2023-08-06T02:49:43;96850.75;;;28.43;80.03
32456;BME280;18912;43.270;27.942;2023-08-06T02:52:08;96870.13;;;28.68;78.76
32456;BME280;18912;43.270;27.942;2023-08-06T02:54:34;96868.63;;;28.70;78.36
32456;BME280;18912;43.270;27.942;2023-08-06T02:56:59;96877.72;;;28.43;79.16
32456;BME280;18912;43.270;27.942;2023-08-06T02:59:25;96872.16;;;28.43;80.06
32456;BME280;18912;43.270;27.942;2023-08-06T03:01:50;96873.78;;;28.56;78.98
32456;BME280;18912;43.270;27.942;2023-08-06T03:04:16;96875.75;;;28.83;77.19
32456;BME280;18912;43.270;27.942;2023-08-06T03:06:43;96868.78;;;28.89;76.52
32456;BME280;18912;43.270;27.942;2023-08-06T03:09:08;96888.34;;;29.20;74.92
32456;BME280;18912;43.270;27.942;2023-08-06T03:11:34;96895.81;;;29.32;73.88
32456;BME280;18912;43.270;27.942;2023-08-06T03:13:59;96905.88;;;29.36;73.71
32456;BME280;18912;43.270;27.942;2023-08-06T03:16:25;96902.38;;;29.55;72.88
32456;BME280;18912;43.270;27.942;2023-08-06T03:18:50;96904.91;;;29.60;71.88
32456;BME280;18912;43.270;27.942;2023-08-06T03:21:16;96901.13;;;29.68;71.59
32456;BME280;18912;43.270;27.942;2023-08-06T03:23:41;96908.53;;;29.76;70.71
32456;BME280;18912;43.270;27.942;2023-08-06T03:26:07;96913.47;;;29.83;70.49
32456;BME280;18912;43.270;27.942;2023-08-06T03:28:33;96916.00;;;29.88;69.74
32456;BME280;18912;43.270;27.942;2023-08-06T03:31:02;96898.00;;;30.01;68.75
32456;BME280;18912;43.270;27.942;2023-08-06T03:33:28;96903.22;;;30.02;68.42
32456;BME280;18912;43.270;27.942;2023-08-06T03:35:54;96907.59;;;30.03;68.54
32456;BME280;18912;43.270;27.942;2023-08-06T03:38:19;96894.75;;;29.99;68.61
32456;BME280;18912;43.270;27.942;2023-08-06T03:40:46;96905.47;;;29.97;68.63
32456;BME280;18912;43.270;27.942;2023-08-06T03:43:12;96896.91;;;30.05;68.36
32456;BME280;18912;43.270;27.942;2023-08-06T03:45:37;96903.81;;;30.11;68.38
32456;BME280;18912;43.270;27.942;2023-08-06T03:48:03;96910.94;;;30.09;68.52
32456;BME280;18912;43.270;27.942;2023-08-06T03:50:28;96904.03;;;30.03;68.58
32456;BME280;18912;43.270;27.942;2023-08-06T03:52:54;96916.59;;;29.81;69.36
32456;BME280;18912;43.270;27.942;2023-08-06T03:55:19;96909.41;;;29.96;68.76
32456;BME280;18912;43.270;27.942;2023-08-06T03:57:45;96904.78;;;30.19;68.05
32456;BME280;18912;43.270;27.942;2023-08-06T04:00:11;96911.44;;;30.30;68.34
32456;BME280;18912;43.270;27.942;2023-08-06T04:02:37;96904.41;;;30.36;68.14
32456;BME280;18912;43.270;27.942;2023-08-06T04:05:03;96902.81;;;30.19;69.12
32456;BME280;18912;43.270;27.942;2023-08-06T04:07:28;96888.38;;;29.98;70.66
32456;BME280;18912;43.270;27.942;2023-08-06T04:09:58;96894.75;;;29.68;73.50
32456;BME280;18912;43.270;27.942;2023-08-06T04:12:24;96891.09;;;29.95;73.24
32456;BME280;18912;43.270;27.942;2023-08-06T04:14:52;96901.97;;;29.84;74.02
32456;BME280;18912;43.270;27.942;2023-08-06T04:17:18;96881.47;;;29.61;75.66
32456;BME280;18912;43.270;27.942;2023-08-06T04:19:50;96878.03;;;29.36;77.92
32456;BME280;18912;43.270;27.942;2023-08-06T04:22:16;96884.06;;;29.54;77.11
32456;BME280;18912;43.270;27.942;2023-08-06T04:24:42;96876.97;;;29.57;77.54
32456;BME280;18912;43.270;27.942;2023-08-06T04:27:11;96880.41;;;29.81;76.63
32456;BME280;18912;43.270;27.942;2023-08-06T04:29:36;96880.28;;;30.09;74.47
32456;BME280;18912;43.270;27.942;2023-08-06T04:32:04;96880.44;;;30.16;74.30
32456;BME280;18912;43.270;27.942;2023-08-06T04:34:30;96873.94;;;30.43;72.67
32456;BME280;18912;43.270;27.942;2023-08-06T04:36:56;96874.09;;;30.69;71.80
32456;BME280;18912;43.270;27.942;2023-08-06T04:39:21;96869.22;;;30.47;71.41
32456;BME280;18912;43.270;27.942;2023-08-06T04:41:47;96879.78;;;30.38;72.24
32456;BME280;18912;43.270;27.942;2023-08-06T04:44:12;96876.22;;;30.22;72.79
32456;BME280;18912;43.270;27.942;2023-08-06T04:46:38;96865.31;;;30.17;71.30
32456;BME280;18912;43.270;27.942;2023-08-06T04:49:03;96873.69;;;30.17;72.16
32456;BME280;18912;43.270;27.942;2023-08-06T04:51:29;96880.16;;;30.56;70.15
32456;BME280;18912;43.270;27.942;2023-08-06T04:53:54;96877.34;;;30.36;69.98
32456;BME280;18912;43.270;27.942;2023-08-06T04:56:20;96852.94;;;30.14;70.97
32456;BME280;18912;43.270;27.942;2023-08-06T04:58:45;96844.63;;;29.99;71.63
32456;BME280;18912;43.270;27.942;2023-08-06T05:01:11;96850.56;;;30.32;70.94
32456;BME280;18912;43.270;27.942;2023-08-06T05:03:36;96855.16;;;30.24;70.73
32456;BME280;18912;43.270;27.942;2023-08-06T05:06:01;96839.88;;;30.72;69.24
32456;BME280;18912;43.270;27.942;2023-08-06T05:08:27;96852.19;;;30.87;67.81
32456;BME280;18912;43.270;27.942;2023-08-06T05:10:52;96839.53;;;30.20;69.61
32456;BME280;18912;43.270;27.942;2023-08-06T05:13:18;96824.31;;;30.33;68.23
32456;BME280;18912;43.270;27.942;2023-08-06T05:15:43;96856.47;;;30.46;68.51
32456;BME280;18912;43.270;27.942;2023-08-06T05:18:11;96842.09;;;30.82;66.24
32456;BME280;18912;43.270;27.942;2023-08-06T05:20:41;96838.84;;;30.61;66.29
32456;BME280;18912;43.270;27.942;2023-08-06T05:23:06;96838.28;;;30.71;66.75
32456;BME280;18912;43.270;27.942;2023-08-06T05:25:34;96849.88;;;30.92;65.79
32456;BME280;18912;43.270;27.942;2023-08-06T05:28:00;96832.00;;;31.16;65.00
32456;BME280;18912;43.270;27.942;2023-08-06T05:30:27;96834.03;;;30.58;67.10
32456;BME280;18912;43.270;27.942;2023-08-06T05:32:52;96831.06;;;31.08;65.17
32456;BME280;18912;43.270;27.942;2023-08-06T05:35:18;96827.44;;;31.08;65.69
32456;BME280;18912;43.270;27.942;2023-08-06T05:37:43;96841.13;;;31.13;64.94
32456;BME280;18912;43.270;27.942;2023-08-06T05:40:09;96837.34;;;31.24;64.95
32456;BME280;18912;43.270;27.942;2023-08-06T05:42:34;96831.81;;;31.05;65.64
32456;BME280;18912;43.270;27.942;2023-08-06T05:45:00;96837.78;;;31.26;64.45
32456;BME280;18912;43.270;27.942;2023-08-06T05:47:25;96838.13;;;31.25;64.34
32456;BME280;18912;43.270;27.942;2023-08-06T05:49:51;96831.94;;;31.35;64.16
32456;BME280;18912;43.270;27.942;2023-08-06T05:52:16;96822.03;;;31.60;64.27
32456;BME280;18912;43.270;27.942;2023-08-06T05:54:42;96826.22;;;31.96;61.56
32456;BME280;18912;43.270;27.942;2023-08-06T05:57:07;96833.34;;;31.93;60.60
32456;BME280;18912;43.270;27.942;2023-08-06T05:59:33;96828.63;;;32.24;60.08
32456;BME280;18912;43.270;27.942;2023-08-06T06:01:58;96839.41;;;32.22;59.44
32456;BME280;18912;43.270;27.942;2023-08-06T06:04:25;96833.28;;;32.42;58.29
32456;BME280;18912;43.270;27.942;2023-08-06T06:06:50;96828.75;;;32.60;57.94
32456;BME280;18912;43.270;27.942;2023-08-06T06:09:15;96816.63;;;32.82;56.68
32456;BME280;18912;43.270;27.942;2023-08-06T06:11:41;96812.88;;;33.41;56.20
32456;BME280;18912;43.270;27.942;2023-08-06T06:14:06;96816.81;;;33.37;55.06
32456;BME280;18912;43.270;27.942;2023-08-06T06:16:32;96823.09;;;33.23;55.35
32456;BME280;18912;43.270;27.942;2023-08-06T06:18:57;96825.50;;;34.12;52.58
32456;BME280;18912;43.270;27.942;2023-08-06T06:21:23;96832.19;;;34.55;51.30
32456;BME280;18912;43.270;27.942;2023-08-06T06:23:49;96822.72;;;34.91;49.73
32456;BME280;18912;43.270;27.942;2023-08-06T06:26:17;96831.63;;;34.28;51.02
32456;BME280;18912;43.270;27.942;2023-08-06T06:28:42;96827.88;;;33.63;52.28
32456;BME280;18912;43.270;27.942;2023-08-06T06:31:07;96823.34;;;33.48;53.47
32456;BME280;18912;43.270;27.942;2023-08-06T06:33:34;96823.47;;;33.22;54.01
32456;BME280;18912;43.270;27.942;2023-08-06T06:35:59;96813.44;;;33.57;52.75
32456;BME280;18912;43.270;27.942;2023-08-06T06:38:25;96821.66;;;33.40;53.94
32456;BME280;18912;43.270;27.942;2023-08-06T06:40:54;96822.59;;;33.14;54.16
32456;BME280;18912;43.270;27.942;2023-08-06T06:43:20;96832.13;;;32.73;57.08
32456;BME280;18912;43.270;27.942;2023-08-06T06:45:45;96841.47;;;33.21;56.10
32456;BME280;18912;43.270;27.942;2023-08-06T06:48:11;96829.50;;;32.90;56.99
32456;BME280;18912;43.270;27.942;2023-08-06T06:50:36;96834.16;;;33.09;56.66
32456;BME280;18912;43.270;27.942;2023-08-06T06:53:04;96827.66;;;33.42;54.36
32456;BME280;18912;43.270;27.942;2023-08-06T06:55:29;96828.88;;;33.41;54.54
32456;BME280;18912;43.270;27.942;2023-08-06T06:57:55;96837.69;;;33.83;52.61
32456;BME280;18912;43.270;27.942;2023-08-06T07:00:20;96831.66;;;34.35;51.34
32456;BME280;18912;43.270;27.942;2023-08-06T07:02:46;96831.03;;;34.63;50.78
32456;BME280;18912;43.270;27.942;2023-08-06T07:05:11;96824.19;;;34.60;51.13
32456;BME280;18912;43.270;27.942;2023-08-06T07:07:37;96817.78;;;34.60;50.15
32456;BME280;18912;43.270;27.942;2023-08-06T07:10:03;96820.00;;;34.33;50.57
32456;BME280;18912;43.270;27.942;2023-08-06T07:12:28;96814.41;;;34.33;50.37
32456;BME280;18912;43.270;27.942;2023-08-06T07:14:54;96824.94;;;33.89;52.21
32456;BME280;18912;43.270;27.942;2023-08-06T07:17:19;96827.81;;;34.61;49.69
32456;BME280;18912;43.270;27.942;2023-08-06T07:19:44;96828.06;;;34.38;50.47
32456;BME280;18912;43.270;27.942;2023-08-06T07:22:10;96828.59;;;34.58;50.07
32456;BME280;18912;43.270;27.942;2023-08-06T07:24:35;96833.00;;;34.55;50.06
32456;BME280;18912;43.270;27.942;2023-08-06T07:27:01;96814.78;;;35.14;48.78
32456;BME280;18912;43.270;27.942;2023-08-06T07:29:26;96828.56;;;34.54;50.36
32456;BME280;18912;43.270;27.942;2023-08-06T07:31:52;96824.94;;;34.50;50.29
32456;BME280;18912;43.270;27.942;2023-08-06T07:34:17;96818.56;;;34.53;51.09
32456;BME280;18912;43.270;27.942;2023-08-06T07:36:44;96818.59;;;34.67;50.69
32456;BME280;18912;43.270;27.942;2023-08-06T07:39:10;96823.16;;;34.21;51.81
32456;BME280;18912;43.270;27.942;2023-08-06T07:41:36;96820.00;;;34.30;51.66
32456;BME280;18912;43.270;27.942;2023-08-06T07:44:01;96824.00;;;34.29;51.88
32456;BME280;18912;43.270;27.942;2023-08-06T07:46:27;96808.75;;;34.23;51.54
32456;BME280;18912;43.270;27.942;2023-08-06T07:48:52;96819.00;;;34.01;52.60
32456;BME280;18912;43.270;27.942;2023-08-06T07:51:18;96834.25;;;34.68;51.09
32456;BME280;18912;43.270;27.942;2023-08-06T07:53:44;96839.16;;;34.14;51.35
32456;BME280;18912;43.270;27.942;2023-08-06T07:56:10;96841.94;;;33.66;52.34
32456;BME280;18912;43.270;27.942;2023-08-06T07:58:35;96826.00;;;33.34;53.47
32456;BME280;18912;43.270;27.942;2023-08-06T08:01:01;96843.22;;;34.23;51.05
32456;BME280;18912;43.270;27.942;2023-08-06T08:03:26;96821.19;;;35.08;49.09
32456;BME280;18912;43.270;27.942;2023-08-06T08:05:55;96838.16;;;35.50;47.33
32456;BME280;18912;43.270;27.942;2023-08-06T08:08:23;96829.97;;;34.96;49.39
32456;BME280;18912;43.270;27.942;2023-08-06T08:10:49;96833.03;;;34.62;49.74
32456;BME280;18912;43.270;27.942;2023-08-06T08:13:14;96833.28;;;35.29;47.89
32456;BME280;18912;43.270;27.942;2023-08-06T08:15:40;96844.97;;;34.49;50.82
32456;BME280;18912;43.270;27.942;2023-08-06T08:18:05;96840.34;;;34.88;50.12
32456;BME280;18912;43.270;27.942;2023-08-06T08:20:31;96834.88;;;35.34;48.62
32456;BME280;18912;43.270;27.942;2023-08-06T08:22:59;96847.91;;;34.12;50.86
32456;BME280;18912;43.270;27.942;2023-08-06T08:25:25;96841.50;;;34.76;49.82
32456;BME280;18912;43.270;27.942;2023-08-06T08:27:51;96844.88;;;35.07;49.38
32456;BME280;18912;43.270;27.942;2023-08-06T08:30:17;96827.66;;;35.36;47.52
32456;BME280;18912;43.270;27.942;2023-08-06T08:32:43;96836.16;;;35.86;46.74
32456;BME280;18912;43.270;27.942;2023-08-06T08:35:08;96835.28;;;35.29;47.75
32456;BME280;18912;43.270;27.942;2023-08-06T08:37:33;96831.53;;;34.90;48.59
32456;BME280;18912;43.270;27.942;2023-08-06T08:40:00;96828.94;;;35.85;47.19
32456;BME280;18912;43.270;27.942;2023-08-06T08:42:26;96833.31;;;36.42;45.97
32456;BME280;18912;43.270;27.942;2023-08-06T08:44:53;96821.97;;;36.74;44.31
32456;BME280;18912;43.270;27.942;2023-08-06T08:47:19;96812.41;;;36.43;44.54
32456;BME280;18912;43.270;27.942;2023-08-06T08:49:46;96808.84;;;35.83;46.23
32456;BME280;18912;43.270;27.942;2023-08-06T08:52:15;96807.66;;;35.48;47.04
32456;BME280;18912;43.270;27.942;2023-08-06T08:54:43;96790.38;;;35.71;47.70
32456;BME280;18912;43.270;27.942;2023-08-06T08:57:08;96797.78;;;34.75;48.74
32456;BME280;18912;43.270;27.942;2023-08-06T08:59:34;96800.81;;;35.53;47.20
32456;BME280;18912;43.270;27.942;2023-08-06T09:02:00;96801.22;;;36.04;45.97
32456;BME280;18912;43.270;27.942;2023-08-06T09:04:28;96807.22;;;35.89;46.00
32456;BME280;18912;43.270;27.942;2023-08-06T09:06:58;96809.16;;;36.51;45.23
32456;BME280;18912;43.270;27.942;2023-08-06T09:09:34;96809.38;;;37.06;44.23
32456;BME280;18912;43.270;27.942;2023-08-06T09:12:13;96807.34;;;37.07;44.14
32456;BME280;18912;43.270;27.942;2023-08-06T09:14:40;96814.13;;;37.16;43.00
32456;BME280;18912;43.270;27.942;2023-08-06T09:17:06;96814.06;;;36.16;45.83
32456;BME280;18912;43.270;27.942;2023-08-06T09:19:32;96810.72;;;36.70;44.44
32456;BME280;18912;43.270;27.942;2023-08-06T09:21:58;96808.25;;;36.86;43.20
32456;BME280;18912;43.270;27.942;2023-08-06T09:24:24;96808.72;;;36.67;44.28
32456;BME280;18912;43.270;27.942;2023-08-06T09:26:51;96797.84;;;36.69;44.88
32456;BME280;18912;43.270;27.942;2023-08-06T09:29:16;96791.38;;;37.52;42.24
32456;BME280;18912;43.270;27.942;2023-08-06T09:34:15;96774.44;;;38.03;41.63
32456;BME280;18912;43.270;27.942;2023-08-06T09:36:42;96772.63;;;37.31;42.33
32456;BME280;18912;43.270;27.942;2023-08-06T09:39:15;96765.19;;;36.86;42.96
32456;BME280;18912;43.270;27.942;2023-08-06T09:41:45;96749.78;;;37.66;42.34
32456;BME280;18912;43.270;27.942;2023-08-06T09:44:20;96760.06;;;36.63;42.72
32456;BME280;18912;43.270;27.942;2023-08-06T09:46:51;96768.16;;;36.50;43.65
32456;BME280;18912;43.270;27.942;2023-08-06T09:49:21;96764.16;;;37.24;42.59
32456;BME280;18912;43.270;27.942;2023-08-06T09:51:47;96773.06;;;37.74;41.92
32456;BME280;18912;43.270;27.942;2023-08-06T09:54:16;96764.59;;;37.19;42.21
32456;BME280;18912;43.270;27.942;2023-08-06T09:56:43;96748.59;;;37.05;42.42
32456;BME280;18912;43.270;27.942;2023-08-06T09:59:08;96762.53;;;37.30;42.92
32456;BME280;18912;43.270;27.942;2023-08-06T10:01:35;96771.06;;;37.12;42.33
32456;BME280;18912;43.270;27.942;2023-08-06T10:04:03;96756.47;;;37.38;42.77
32456;BME280;18912;43.270;27.942;2023-08-06T10:06:29;96750.81;;;37.86;42.31
32456;BME280;18912;43.270;27.942;2023-08-06T10:08:55;96760.34;;;37.55;42.29
32456;BME280;18912;43.270;27.942;2023-08-06T10:11:24;96742.53;;;37.14;43.41
32456;BME280;18912;43.270;27.942;2023-08-06T10:13:55;96739.09;;;36.85;43.90
32456;BME280;18912;43.270;27.942;2023-08-06T10:16:23;96740.50;;;37.11;43.20
32456;BME280;18912;43.270;27.942;2023-08-06T10:18:50;96746.25;;;36.97;43.71
32456;BME280;18912;43.270;27.942;2023-08-06T10:21:16;96746.88;;;36.42;44.61
32456;BME280;18912;43.270;27.942;2023-08-06T10:23:42;96723.84;;;36.69;44.13
32456;BME280;18912;43.270;27.942;2023-08-06T10:26:07;96721.13;;;37.20;43.34
32456;BME280;18912;43.270;27.942;2023-08-06T10:28:37;96723.31;;;36.98;43.28
32456;BME280;18912;43.270;27.942;2023-08-06T10:31:03;96722.28;;;36.64;44.47
32456;BME280;18912;43.270;27.942;2023-08-06T10:33:45;96714.72;;;37.16;44.25
32456;BME280;18912;43.270;27.942;2023-08-06T10:36:11;96725.72;;;35.92;45.80
32456;BME280;18912;43.270;27.942;2023-08-06T10:38:47;96712.66;;;36.54;45.13
32456;BME280;18912;43.270;27.942;2023-08-06T10:41:23;96713.13;;;37.15;43.93
32456;BME280;18912;43.270;27.942;2023-08-06T10:43:49;96718.13;;;36.83;44.66
32456;BME280;18912;43.270;27.942;2023-08-06T10:46:27;96701.59;;;35.98;45.90
32456;BME280;18912;43.270;27.942;2023-08-06T10:48:53;96711.97;;;36.15;46.47
32456;BME280;18912;43.270;27.942;2023-08-06T10:51:19;96713.97;;;36.22;46.08
32456;BME280;18912;43.270;27.942;2023-08-06T10:53:47;96711.97;;;36.15;46.51
32456;BME280;18912;43.270;27.942;2023-08-06T10:56:14;96708.84;;;35.82;47.77
32456;BME280;18912;43.270;27.942;2023-08-06T10:58:40;96703.97;;;36.10;47.54
32456;BME280;18912;43.270;27.942;2023-08-06T11:01:06;96691.56;;;35.90;48.13
32456;BME280;18912;43.270;27.942;2023-08-06T11:03:33;96695.16;;;36.08;47.90
32456;BME280;18912;43.270;27.942;2023-08-06T11:05:59;96683.19;;;35.62;48.71
32456;BME280;18912;43.270;27.942;2023-08-06T11:08:32;96693.16;;;35.98;47.28
32456;BME280;18912;43.270;27.942;2023-08-06T11:11:09;96687.56;;;35.84;48.48
32456;BME280;18912;43.270;27.942;2023-08-06T11:13:42;96693.63;;;35.54;48.70
32456;BME280;18912;43.270;27.942;2023-08-06T11:16:09;96685.94;;;34.81;50.45
32456;BME280;18912;43.270;27.942;2023-08-06T11:18:35;96670.75;;;35.21;49.63
32456;BME280;18912;43.270;27.942;2023-08-06T11:21:01;96678.38;;;35.38;49.97
32456;BME280;18912;43.270;27.942;2023-08-06T11:23:27;96684.25;;;34.52;51.91
32456;BME280;18912;43.270;27.942;2023-08-06T11:25:57;96668.44;;;34.05;53.33
32456;BME280;18912;43.270;27.942;2023-08-06T11:28:23;96680.94;;;34.25;53.92
32456;BME280;18912;43.270;27.942;2023-08-06T11:30:49;96687.09;;;33.80;55.37
32456;BME280;18912;43.270;27.942;2023-08-06T11:33:23;96684.19;;;33.59;55.63
32456;BME280;18912;43.270;27.942;2023-08-06T11:35:55;96684.94;;;33.49;56.31
32456;BME280;18912;43.270;27.942;2023-08-06T11:38:21;96693.41;;;33.59;56.17
32456;BME280;18912;43.270;27.942;2023-08-06T11:40:47;96662.53;;;33.52;57.39
32456;BME280;18912;43.270;27.942;2023-08-06T11:43:13;96647.44;;;33.71;56.45
32456;BME280;18912;43.270;27.942;2023-08-06T11:45:40;96630.66;;;33.17;57.69
32456;BME280;18912;43.270;27.942;2023-08-06T11:48:05;96636.09;;;33.50;56.54
32456;BME280;18912;43.270;27.942;2023-08-06T11:50:31;96656.56;;;33.61;55.97
32456;BME280;18912;43.270;27.942;2023-08-06T11:53:00;96676.78;;;32.89;58.14
32456;BME280;18912;43.270;27.942;2023-08-06T11:55:27;96674.31;;;33.25;58.03
32456;BME280;18912;43.270;27.942;2023-08-06T11:57:54;96665.97;;;32.84;59.32
32456;BME280;18912;43.270;27.942;2023-08-06T12:00:20;96684.00;;;32.50;60.20
32456;BME280;18912;43.270;27.942;2023-08-06T12:02:48;96686.09;;;32.27;61.50
32456;BME280;18912;43.270;27.942;2023-08-06T12:05:30;96700.34;;;32.48;60.25
32456;BME280;18912;43.270;27.942;2023-08-06T12:07:59;96805.34;;;31.64;64.90
32456;BME280;18912;43.270;27.942;2023-08-06T12:10:27;96820.88;;;31.19;67.48
32456;BME280;18912;43.270;27.942;2023-08-06T12:12:53;96826.84;;;31.63;69.48
32456;BME280;18912;43.270;27.942;2023-08-06T12:15:19;96823.19;;;31.59;64.37
32456;BME280;18912;43.270;27.942;2023-08-06T12:17:45;96803.25;;;31.57;61.36
32456;BME280;18912;43.270;27.942;2023-08-06T12:20:11;96796.25;;;31.02;62.23
32456;BME280;18912;43.270;27.942;2023-08-06T12:22:37;96788.63;;;30.99;57.54
32456;BME280;18912;43.270;27.942;2023-08-06T12:25:09;96769.31;;;31.55;55.08
32456;BME280;18912;43.270;27.942;2023-08-06T12:27:46;96781.28;;;31.82;54.71
32456;BME280;18912;43.270;27.942;2023-08-06T12:30:12;96790.28;;;32.24;55.56
32456;BME280;18912;43.270;27.942;2023-08-06T12:32:38;96788.91;;;31.59;56.04
32456;BME280;18912;43.270;27.942;2023-08-06T12:35:04;96768.34;;;31.96;53.70
32456;BME280;18912;43.270;27.942;2023-08-06T12:37:32;96745.84;;;32.15;55.19
32456;BME280;18912;43.270;27.942;2023-08-06T12:39:58;96718.88;;;31.97;55.11
32456;BME280;18912;43.270;27.942;2023-08-06T12:42:24;96751.94;;;31.43;55.02
32456;BME280;18912;43.270;27.942;2023-08-06T12:44:49;96751.31;;;31.07;55.36
32456;BME280;18912;43.270;27.942;2023-08-06T12:47:16;96763.22;;;31.76;54.15
32456;BME280;18912;43.270;27.942;2023-08-06T12:49:42;96755.25;;;31.06;55.33
32456;BME280;18912;43.270;27.942;2023-08-06T12:52:08;96750.66;;;31.63;55.28